sensor_id;sensor_type;location;lat;lon;timestamp;temperature;humidity
52321;DHT22;38261;54.090;13.382;2023-05-10T00:00:32;11.90;99.90
52321;DHT22;38261;54.090;13.382;2023-05-10T00:01:54;11.90;99.90
52321;DHT22;38261;54.090;13.382;2023-05-10T00:03:16;11.90;99.90
52321;DHT22;38261;54.090;13.382;2023-05-10T00:04:38;11.80;99.90
52321;DHT22;38261;54.090;13.382;2023-05-10T00:06:01;11.80;99.90
52321;DHT22;38261;54.090;13.382;2023-05-10T00:07:23;11.80;99.90
52321;DHT22;38261;54.090;13.382;2023-05-10T00:10:29;11.80;99.90
52321;DHT22;38261;54.090;13.382;2023-05-10T00:11:51;11.70;99.90
52321;DHT22;38261;54.090;13.382;2023-05-10T00:13:13;11.70;99.90
52321;DHT22;38261;54.090;13.382;2023-05-10T00:14:36;11.70;99.90
52321;DHT22;38261;54.090;13.382;2023-05-10T00:15:58;11.60;99.90
52321;DHT22;38261;54.090;13.382;2023-05-10T00:17:20;11.70;99.90
52321;DHT22;38261;54.090;13.382;2023-05-10T00:18:42;11.60;99.90
52321;DHT22;38261;54.090;13.382;2023-05-10T00:20:05;11.70;99.90
52321;DHT22;38261;54.090;13.382;2023-05-10T00:21:27;11.70;99.90
52321;DHT22;38261;54.090;13.382;2023-05-10T00:22:50;11.70;99.90
52321;DHT22;38261;54.090;13.382;2023-05-10T00:24:12;11.60;99.90
52321;DHT22;38261;54.090;13.382;2023-05-10T00:25:34;11.70;99.90
52321;DHT22;38261;54.090;13.382;2023-05-10T00:26:56;11.70;99.90
52321;DHT22;38261;54.090;13.382;2023-05-10T00:28:18;11.60;99.90
52321;DHT22;38261;54.090;13.382;2023-05-10T00:29:40;11.60;99.90
52321;DHT22;38261;54.090;13.382;2023-05-10T00:31:02;11.60;99.90
52321;DHT22;38261;54.090;13.382;2023-05-10T00:32:24;11.70;99.90
52321;DHT22;38261;54.090;13.382;2023-05-10T00:33:46;11.60;99.90
52321;DHT22;38261;54.090;13.382;2023-05-10T00:35:09;11.60;99.90
52321;DHT22;38261;54.090;13.382;2023-05-10T00:36:31;11.60;99.90
52321;DHT22;38261;54.090;13.382;2023-05-10T00:37:53;11.60;99.90
52321;DHT22;38261;54.090;13.382;2023-05-10T00:39:15;11.60;99.90
52321;DHT22;38261;54.090;13.382;2023-05-10T00:40:37;11.60;99.90
52321;DHT22;38261;54.090;13.382;2023-05-10T00:42:00;11.60;99.90
52321;DHT22;38261;54.090;13.382;2023-05-10T00:43:22;11.60;99.90
52321;DHT22;38261;54.090;13.382;2023-05-10T00:44:44;11.60;99.90
52321;DHT22;38261;54.090;13.382;2023-05-10T00:46:06;11.50;99.90
52321;DHT22;38261;54.090;13.382;2023-05-10T00:47:29;11.50;99.90
52321;DHT22;38261;54.090;13.382;2023-05-10T00:48:52;11.50;99.90
52321;DHT22;38261;54.090;13.382;2023-05-10T00:50:14;11.50;99.90
52321;DHT22;38261;54.090;13.382;2023-05-10T00:51:38;11.50;99.90
52321;DHT22;38261;54.090;13.382;2023-05-10T00:53:00;11.50;99.90
52321;DHT22;38261;54.090;13.382;2023-05-10T00:54:23;11.40;99.90
52321;DHT22;38261;54.090;13.382;2023-05-10T00:55:45;11.40;99.90
52321;DHT22;38261;54.090;13.382;2023-05-10T00:57:07;11.40;99.90
52321;DHT22;38261;54.090;13.382;2023-05-10T00:58:29;11.40;99.90
52321;DHT22;38261;54.090;13.382;2023-05-10T00:59:53;11.40;99.90
52321;DHT22;38261;54.090;13.382;2023-05-10T01:01:15;11.40;99.90
52321;DHT22;38261;54.090;13.382;2023-05-10T01:02:38;11.30;99.90
52321;DHT22;38261;54.090;13.382;2023-05-10T01:04:00;11.30;99.90
52321;DHT22;38261;54.090;13.382;2023-05-10T01:05:22;11.30;99.90
52321;DHT22;38261;54.090;13.382;2023-05-10T01:06:45;11.30;99.90
52321;DHT22;38261;54.090;13.382;2023-05-10T01:08:07;11.30;99.90
52321;DHT22;38261;54.090;13.382;2023-05-10T01:09:30;11.30;99.90
52321;DHT22;38261;54.090;13.382;2023-05-10T01:10:53;11.30;99.90
52321;DHT22;38261;54.090;13.382;2023-05-10T01:12:15;11.30;99.90
52321;DHT22;38261;54.090;13.382;2023-05-10T01:13:39;11.30;99.90
52321;DHT22;38261;54.090;13.382;2023-05-10T01:15:03;11.30;99.90
52321;DHT22;38261;54.090;13.382;2023-05-10T01:16:27;11.30;99.90
52321;DHT22;38261;54.090;13.382;2023-05-10T01:17:51;11.20;99.90
52321;DHT22;38261;54.090;13.382;2023-05-10T01:19:19;11.20;99.90
52321;DHT22;38261;54.090;13.382;2023-05-10T01:20:46;11.20;99.90
52321;DHT22;38261;54.090;13.382;2023-05-10T01:32:54;11.20;99.90
52321;DHT22;38261;54.090;13.382;2023-05-10T01:34:25;11.10;99.90
52321;DHT22;38261;54.090;13.382;2023-05-10T01:39:23;11.10;99.90
52321;DHT22;38261;54.090;13.382;2023-05-10T01:41:11;11.20;99.90
52321;DHT22;38261;54.090;13.382;2023-05-10T01:42:44;11.10;99.90
52321;DHT22;38261;54.090;13.382;2023-05-10T01:46:02;11.10;99.90
52321;DHT22;38261;54.090;13.382;2023-05-10T01:47:41;11.10;99.90
52321;DHT22;38261;54.090;13.382;2023-05-10T01:49:29;11.00;99.90
52321;DHT22;38261;54.090;13.382;2023-05-10T01:50:53;11.00;99.90
52321;DHT22;38261;54.090;13.382;2023-05-10T01:52:18;11.00;99.90
52321;DHT22;38261;54.090;13.382;2023-05-10T01:53:42;11.00;99.90
52321;DHT22;38261;54.090;13.382;2023-05-10T01:55:07;11.00;99.90
52321;DHT22;38261;54.090;13.382;2023-05-10T01:56:33;11.00;99.90
52321;DHT22;38261;54.090;13.382;2023-05-10T01:58:04;11.00;99.90
52321;DHT22;38261;54.090;13.382;2023-05-10T01:59:30;11.00;99.90
52321;DHT22;38261;54.090;13.382;2023-05-10T02:00:54;11.00;99.90
52321;DHT22;38261;54.090;13.382;2023-05-10T02:02:21;11.00;99.90
52321;DHT22;38261;54.090;13.382;2023-05-10T02:03:44;11.00;99.90
52321;DHT22;38261;54.090;13.382;2023-05-10T02:05:07;11.00;99.90
52321;DHT22;38261;54.090;13.382;2023-05-10T02:06:30;11.00;99.90
52321;DHT22;38261;54.090;13.382;2023-05-10T02:07:53;10.90;99.90
52321;DHT22;38261;54.090;13.382;2023-05-10T02:09:16;10.90;99.90
52321;DHT22;38261;54.090;13.382;2023-05-10T02:10:40;10.90;99.90
52321;DHT22;38261;54.090;13.382;2023-05-10T02:12:04;10.90;99.90
52321;DHT22;38261;54.090;13.382;2023-05-10T02:13:27;10.90;99.90
52321;DHT22;38261;54.090;13.382;2023-05-10T02:14:52;10.90;99.90
52321;DHT22;38261;54.090;13.382;2023-05-10T02:16:16;10.80;99.90
52321;DHT22;38261;54.090;13.382;2023-05-10T02:17:39;10.90;99.90
52321;DHT22;38261;54.090;13.382;2023-05-10T02:19:03;10.80;99.90
52321;DHT22;38261;54.090;13.382;2023-05-10T02:20:27;10.80;99.90
52321;DHT22;38261;54.090;13.382;2023-05-10T02:21:50;10.80;99.90
52321;DHT22;38261;54.090;13.382;2023-05-10T02:23:14;10.80;99.90
52321;DHT22;38261;54.090;13.382;2023-05-10T02:24:38;10.80;99.90
52321;DHT22;38261;54.090;13.382;2023-05-10T02:26:02;10.80;99.90
52321;DHT22;38261;54.090;13.382;2023-05-10T02:27:27;10.80;99.90
52321;DHT22;38261;54.090;13.382;2023-05-10T02:28:50;10.80;99.90
52321;DHT22;38261;54.090;13.382;2023-05-10T02:30:14;10.80;99.90
52321;DHT22;38261;54.090;13.382;2023-05-10T02:31:36;10.80;99.90
52321;DHT22;38261;54.090;13.382;2023-05-10T02:33:01;10.80;99.90
52321;DHT22;38261;54.090;13.382;2023-05-10T02:34:26;10.80;99.90
52321;DHT22;38261;54.090;13.382;2023-05-10T02:35:49;10.70;99.90
52321;DHT22;38261;54.090;13.382;2023-05-10T02:37:15;10.70;99.90
52321;DHT22;38261;54.090;13.382;2023-05-10T02:38:40;10.70;99.90
52321;DHT22;38261;54.090;13.382;2023-05-10T02:40:04;10.60;99.90
52321;DHT22;38261;54.090;13.382;2023-05-10T02:41:27;10.70;99.90
52321;DHT22;38261;54.090;13.382;2023-05-10T02:42:52;10.60;99.90
52321;DHT22;38261;54.090;13.382;2023-05-10T02:44:18;10.60;99.90
52321;DHT22;38261;54.090;13.382;2023-05-10T02:45:43;10.60;99.90
52321;DHT22;38261;54.090;13.382;2023-05-10T02:47:05;10.60;99.90
52321;DHT22;38261;54.090;13.382;2023-05-10T02:48:28;10.60;99.90
52321;DHT22;38261;54.090;13.382;2023-05-10T02:49:50;10.60;99.90
52321;DHT22;38261;54.090;13.382;2023-05-10T02:51:14;10.60;99.90
52321;DHT22;38261;54.090;13.382;2023-05-10T02:52:51;10.60;99.90
52321;DHT22;38261;54.090;13.382;2023-05-10T02:54:19;10.50;99.90
52321;DHT22;38261;54.090;13.382;2023-05-10T02:55:42;10.50;99.90
52321;DHT22;38261;54.090;13.382;2023-05-10T02:57:07;10.50;99.90
52321;DHT22;38261;54.090;13.382;2023-05-10T02:58:31;10.50;99.90
52321;DHT22;38261;54.090;13.382;2023-05-10T02:59:54;10.50;99.90
52321;DHT22;38261;54.090;13.382;2023-05-10T03:01:17;10.40;99.90
52321;DHT22;38261;54.090;13.382;2023-05-10T03:02:39;10.50;99.90
52321;DHT22;38261;54.090;13.382;2023-05-10T03:04:01;10.50;99.90
52321;DHT22;38261;54.090;13.382;2023-05-10T03:05:23;10.40;99.90
52321;DHT22;38261;54.090;13.382;2023-05-10T03:06:45;10.40;99.90
52321;DHT22;38261;54.090;13.382;2023-05-10T03:08:08;10.50;99.90
52321;DHT22;38261;54.090;13.382;2023-05-10T03:09:31;10.50;99.90
52321;DHT22;38261;54.090;13.382;2023-05-10T03:12:43;10.40;99.90
52321;DHT22;38261;54.090;13.382;2023-05-10T03:14:42;10.40;99.90
52321;DHT22;38261;54.090;13.382;2023-05-10T03:16:14;10.50;99.90
52321;DHT22;38261;54.090;13.382;2023-05-10T03:17:47;10.40;99.90
52321;DHT22;38261;54.090;13.382;2023-05-10T03:19:24;10.50;99.90
52321;DHT22;38261;54.090;13.382;2023-05-10T03:20:49;10.50;99.90
52321;DHT22;38261;54.090;13.382;2023-05-10T03:22:13;10.50;99.90
52321;DHT22;38261;54.090;13.382;2023-05-10T03:23:59;10.50;99.90
52321;DHT22;38261;54.090;13.382;2023-05-10T03:25:28;10.50;99.90
52321;DHT22;38261;54.090;13.382;2023-05-10T03:26:54;10.50;99.90
52321;DHT22;38261;54.090;13.382;2023-05-10T03:28:18;10.50;99.90
52321;DHT22;38261;54.090;13.382;2023-05-10T03:29:41;10.50;99.90
52321;DHT22;38261;54.090;13.382;2023-05-10T03:31:05;10.60;99.90
52321;DHT22;38261;54.090;13.382;2023-05-10T03:32:29;10.60;99.90
52321;DHT22;38261;54.090;13.382;2023-05-10T03:33:53;10.60;99.90
52321;DHT22;38261;54.090;13.382;2023-05-10T03:35:15;10.60;99.90
52321;DHT22;38261;54.090;13.382;2023-05-10T03:36:38;10.60;99.90
52321;DHT22;38261;54.090;13.382;2023-05-10T03:38:00;10.60;99.90
52321;DHT22;38261;54.090;13.382;2023-05-10T03:39:22;10.70;99.90
52321;DHT22;38261;54.090;13.382;2023-05-10T03:40:44;10.70;99.90
52321;DHT22;38261;54.090;13.382;2023-05-10T03:42:06;10.70;99.90
52321;DHT22;38261;54.090;13.382;2023-05-10T03:43:29;10.80;99.90
52321;DHT22;38261;54.090;13.382;2023-05-10T03:44:51;10.80;99.90
52321;DHT22;38261;54.090;13.382;2023-05-10T03:46:13;10.80;99.90
52321;DHT22;38261;54.090;13.382;2023-05-10T03:47:35;10.80;99.90
52321;DHT22;38261;54.090;13.382;2023-05-10T03:48:57;10.80;99.90
52321;DHT22;38261;54.090;13.382;2023-05-10T03:50:20;10.90;99.90
52321;DHT22;38261;54.090;13.382;2023-05-10T03:51:42;11.00;99.90
52321;DHT22;38261;54.090;13.382;2023-05-10T03:53:04;11.10;99.90
52321;DHT22;38261;54.090;13.382;2023-05-10T03:54:26;11.30;99.90
52321;DHT22;38261;54.090;13.382;2023-05-10T03:55:48;11.90;99.90
52321;DHT22;38261;54.090;13.382;2023-05-10T03:57:10;12.70;99.90
52321;DHT22;38261;54.090;13.382;2023-05-10T03:58:32;13.60;99.90
52321;DHT22;38261;54.090;13.382;2023-05-10T03:59:55;14.50;99.90
52321;DHT22;38261;54.090;13.382;2023-05-10T04:01:17;15.40;99.90
52321;DHT22;38261;54.090;13.382;2023-05-10T04:02:39;16.10;99.90
52321;DHT22;38261;54.090;13.382;2023-05-10T04:04:01;16.70;99.90
52321;DHT22;38261;54.090;13.382;2023-05-10T04:05:23;17.30;99.90
52321;DHT22;38261;54.090;13.382;2023-05-10T04:06:45;17.70;99.90
52321;DHT22;38261;54.090;13.382;2023-05-10T04:08:08;18.00;99.90
52321;DHT22;38261;54.090;13.382;2023-05-10T04:09:30;18.30;99.90
52321;DHT22;38261;54.090;13.382;2023-05-10T04:10:52;18.60;99.90
52321;DHT22;38261;54.090;13.382;2023-05-10T04:12:14;19.00;99.90
52321;DHT22;38261;54.090;13.382;2023-05-10T04:13:36;19.20;99.90
52321;DHT22;38261;54.090;13.382;2023-05-10T04:14:58;19.40;99.90
52321;DHT22;38261;54.090;13.382;2023-05-10T04:16:21;19.50;99.90
52321;DHT22;38261;54.090;13.382;2023-05-10T04:17:43;19.60;99.90
52321;DHT22;38261;54.090;13.382;2023-05-10T04:19:05;19.80;99.90
52321;DHT22;38261;54.090;13.382;2023-05-10T04:20:27;20.10;99.90
52321;DHT22;38261;54.090;13.382;2023-05-10T04:21:49;20.40;99.90
52321;DHT22;38261;54.090;13.382;2023-05-10T04:23:11;20.60;99.90
52321;DHT22;38261;54.090;13.382;2023-05-10T04:24:35;20.90;99.90
52321;DHT22;38261;54.090;13.382;2023-05-10T04:26:02;21.10;99.90
52321;DHT22;38261;54.090;13.382;2023-05-10T04:27:24;21.20;99.90
52321;DHT22;38261;54.090;13.382;2023-05-10T04:28:46;21.50;99.90
52321;DHT22;38261;54.090;13.382;2023-05-10T04:30:09;21.50;99.90
52321;DHT22;38261;54.090;13.382;2023-05-10T04:31:31;21.60;99.90
52321;DHT22;38261;54.090;13.382;2023-05-10T04:32:53;21.80;99.90
52321;DHT22;38261;54.090;13.382;2023-05-10T04:34:15;22.00;99.90
52321;DHT22;38261;54.090;13.382;2023-05-10T04:35:37;22.30;99.90
52321;DHT22;38261;54.090;13.382;2023-05-10T04:37:00;22.30;99.90
52321;DHT22;38261;54.090;13.382;2023-05-10T04:38:22;22.40;99.90
52321;DHT22;38261;54.090;13.382;2023-05-10T04:39:45;22.50;99.90
52321;DHT22;38261;54.090;13.382;2023-05-10T04:41:08;22.60;99.90
52321;DHT22;38261;54.090;13.382;2023-05-10T04:42:30;22.70;99.90
52321;DHT22;38261;54.090;13.382;2023-05-10T04:43:52;23.00;99.90
52321;DHT22;38261;54.090;13.382;2023-05-10T04:45:14;23.10;99.90
52321;DHT22;38261;54.090;13.382;2023-05-10T04:46:37;23.20;99.90
52321;DHT22;38261;54.090;13.382;2023-05-10T04:47:59;23.30;99.90
52321;DHT22;38261;54.090;13.382;2023-05-10T04:49:21;23.30;99.90
52321;DHT22;38261;54.090;13.382;2023-05-10T04:50:44;23.50;99.90
52321;DHT22;38261;54.090;13.382;2023-05-10T04:52:06;23.50;99.90
52321;DHT22;38261;54.090;13.382;2023-05-10T04:53:28;23.60;99.90
52321;DHT22;38261;54.090;13.382;2023-05-10T04:54:50;23.50;99.90
52321;DHT22;38261;54.090;13.382;2023-05-10T04:56:13;23.70;99.90
52321;DHT22;38261;54.090;13.382;2023-05-10T04:57:35;23.60;99.90
52321;DHT22;38261;54.090;13.382;2023-05-10T04:58:57;23.60;99.90
52321;DHT22;38261;54.090;13.382;2023-05-10T05:00:19;23.60;99.90
52321;DHT22;38261;54.090;13.382;2023-05-10T05:01:41;23.70;99.90
52321;DHT22;38261;54.090;13.382;2023-05-10T05:03:03;23.90;99.90
52321;DHT22;38261;54.090;13.382;2023-05-10T05:04:26;24.20;99.90
52321;DHT22;38261;54.090;13.382;2023-05-10T05:05:48;24.30;99.90
52321;DHT22;38261;54.090;13.382;2023-05-10T05:07:10;24.30;99.90
52321;DHT22;38261;54.090;13.382;2023-05-10T05:08:32;24.50;99.90
52321;DHT22;38261;54.090;13.382;2023-05-10T05:09:54;24.50;99.90
52321;DHT22;38261;54.090;13.382;2023-05-10T05:11:17;24.50;99.90
52321;DHT22;38261;54.090;13.382;2023-05-10T05:12:39;24.60;99.90
52321;DHT22;38261;54.090;13.382;2023-05-10T05:14:01;24.40;99.90
52321;DHT22;38261;54.090;13.382;2023-05-10T05:15:23;24.30;99.90
52321;DHT22;38261;54.090;13.382;2023-05-10T05:16:45;24.30;99.90
52321;DHT22;38261;54.090;13.382;2023-05-10T05:18:07;24.30;99.90
52321;DHT22;38261;54.090;13.382;2023-05-10T05:19:31;24.30;99.90
52321;DHT22;38261;54.090;13.382;2023-05-10T05:20:53;24.20;99.90
52321;DHT22;38261;54.090;13.382;2023-05-10T05:22:15;24.30;99.90
52321;DHT22;38261;54.090;13.382;2023-05-10T05:23:40;24.20;99.90
52321;DHT22;38261;54.090;13.382;2023-05-10T05:25:02;24.10;99.90
52321;DHT22;38261;54.090;13.382;2023-05-10T05:26:26;23.90;99.90
52321;DHT22;38261;54.090;13.382;2023-05-10T05:27:48;23.90;99.90
52321;DHT22;38261;54.090;13.382;2023-05-10T05:29:10;24.00;99.90
52321;DHT22;38261;54.090;13.382;2023-05-10T05:30:32;24.20;99.90
52321;DHT22;38261;54.090;13.382;2023-05-10T05:31:54;24.40;99.90
52321;DHT22;38261;54.090;13.382;2023-05-10T05:33:16;24.40;99.90
52321;DHT22;38261;54.090;13.382;2023-05-10T05:34:39;24.40;99.90
52321;DHT22;38261;54.090;13.382;2023-05-10T05:36:02;24.50;99.90
52321;DHT22;38261;54.090;13.382;2023-05-10T05:37:25;24.10;99.90
52321;DHT22;38261;54.090;13.382;2023-05-10T05:38:47;23.80;99.90
52321;DHT22;38261;54.090;13.382;2023-05-10T05:40:12;23.50;99.90
52321;DHT22;38261;54.090;13.382;2023-05-10T05:41:34;23.30;99.90
52321;DHT22;38261;54.090;13.382;2023-05-10T05:42:56;23.20;99.90
52321;DHT22;38261;54.090;13.382;2023-05-10T05:44:19;23.20;99.90
52321;DHT22;38261;54.090;13.382;2023-05-10T05:45:41;23.30;99.90
52321;DHT22;38261;54.090;13.382;2023-05-10T05:47:03;23.40;99.90
52321;DHT22;38261;54.090;13.382;2023-05-10T05:48:25;23.50;99.90
52321;DHT22;38261;54.090;13.382;2023-05-10T05:49:47;23.60;99.90
52321;DHT22;38261;54.090;13.382;2023-05-10T05:51:09;23.90;99.90
52321;DHT22;38261;54.090;13.382;2023-05-10T05:52:31;23.80;99.90
52321;DHT22;38261;54.090;13.382;2023-05-10T05:53:53;23.60;99.90
52321;DHT22;38261;54.090;13.382;2023-05-10T05:55:15;23.30;99.90
52321;DHT22;38261;54.090;13.382;2023-05-10T05:56:38;22.90;99.90
52321;DHT22;38261;54.090;13.382;2023-05-10T05:58:00;22.50;99.90
52321;DHT22;38261;54.090;13.382;2023-05-10T05:59:22;22.30;99.90
52321;DHT22;38261;54.090;13.382;2023-05-10T06:00:44;22.40;99.90
52321;DHT22;38261;54.090;13.382;2023-05-10T06:02:07;22.50;99.90
52321;DHT22;38261;54.090;13.382;2023-05-10T06:03:29;22.40;99.90
52321;DHT22;38261;54.090;13.382;2023-05-10T06:04:52;22.10;99.90
52321;DHT22;38261;54.090;13.382;2023-05-10T06:06:14;22.10;99.90
52321;DHT22;38261;54.090;13.382;2023-05-10T06:07:36;22.10;99.90
52321;DHT22;38261;54.090;13.382;2023-05-10T06:08:58;21.80;99.90
52321;DHT22;38261;54.090;13.382;2023-05-10T06:10:20;21.50;99.90
52321;DHT22;38261;54.090;13.382;2023-05-10T06:11:42;21.30;99.90
52321;DHT22;38261;54.090;13.382;2023-05-10T06:13:04;21.30;99.90
52321;DHT22;38261;54.090;13.382;2023-05-10T06:14:27;21.10;99.90
52321;DHT22;38261;54.090;13.382;2023-05-10T06:15:49;20.70;99.90
52321;DHT22;38261;54.090;13.382;2023-05-10T06:17:11;20.20;99.90
52321;DHT22;38261;54.090;13.382;2023-05-10T06:18:33;19.70;99.90
52321;DHT22;38261;54.090;13.382;2023-05-10T06:19:56;19.00;99.90
52321;DHT22;38261;54.090;13.382;2023-05-10T06:21:18;18.50;99.90
52321;DHT22;38261;54.090;13.382;2023-05-10T06:22:40;18.10;99.90
52321;DHT22;38261;54.090;13.382;2023-05-10T06:24:03;17.70;99.90
52321;DHT22;38261;54.090;13.382;2023-05-10T06:25:25;17.30;99.90
52321;DHT22;38261;54.090;13.382;2023-05-10T06:26:47;17.10;99.90
52321;DHT22;38261;54.090;13.382;2023-05-10T06:28:11;16.80;99.90
52321;DHT22;38261;54.090;13.382;2023-05-10T06:29:33;16.60;99.90
52321;DHT22;38261;54.090;13.382;2023-05-10T06:30:55;16.40;99.90
52321;DHT22;38261;54.090;13.382;2023-05-10T06:32:17;16.30;99.90
52321;DHT22;38261;54.090;13.382;2023-05-10T06:33:39;16.00;99.90
52321;DHT22;38261;54.090;13.382;2023-05-10T06:35:02;15.90;99.90
52321;DHT22;38261;54.090;13.382;2023-05-10T06:36:24;15.70;99.90
52321;DHT22;38261;54.090;13.382;2023-05-10T06:37:48;15.60;99.90
52321;DHT22;38261;54.090;13.382;2023-05-10T06:39:10;15.60;99.90
52321;DHT22;38261;54.090;13.382;2023-05-10T06:40:33;15.60;99.90
52321;DHT22;38261;54.090;13.382;2023-05-10T06:41:56;15.60;99.90
52321;DHT22;38261;54.090;13.382;2023-05-10T06:43:18;15.50;99.90
52321;DHT22;38261;54.090;13.382;2023-05-10T06:44:40;15.50;99.90
52321;DHT22;38261;54.090;13.382;2023-05-10T06:46:02;15.50;99.90
52321;DHT22;38261;54.090;13.382;2023-05-10T06:47:24;15.50;99.90
52321;DHT22;38261;54.090;13.382;2023-05-10T06:48:46;15.50;99.90
52321;DHT22;38261;54.090;13.382;2023-05-10T06:50:09;15.40;99.90
52321;DHT22;38261;54.090;13.382;2023-05-10T06:51:31;15.50;99.90
52321;DHT22;38261;54.090;13.382;2023-05-10T06:52:54;15.60;99.90
52321;DHT22;38261;54.090;13.382;2023-05-10T06:54:17;15.60;99.90
52321;DHT22;38261;54.090;13.382;2023-05-10T06:55:39;15.60;99.90
52321;DHT22;38261;54.090;13.382;2023-05-10T06:57:01;15.60;99.90
52321;DHT22;38261;54.090;13.382;2023-05-10T06:58:30;15.60;99.90
52321;DHT22;38261;54.090;13.382;2023-05-10T06:59:52;15.60;99.90
52321;DHT22;38261;54.090;13.382;2023-05-10T07:01:14;15.60;99.90
52321;DHT22;38261;54.090;13.382;2023-05-10T07:02:37;15.50;99.90
52321;DHT22;38261;54.090;13.382;2023-05-10T07:03:59;15.50;99.90
52321;DHT22;38261;54.090;13.382;2023-05-10T07:05:21;15.60;99.90
52321;DHT22;38261;54.090;13.382;2023-05-10T07:06:43;15.60;99.90
52321;DHT22;38261;54.090;13.382;2023-05-10T07:08:08;15.70;99.90
52321;DHT22;38261;54.090;13.382;2023-05-10T07:09:30;15.70;99.90
52321;DHT22;38261;54.090;13.382;2023-05-10T07:10:52;15.80;99.90
52321;DHT22;38261;54.090;13.382;2023-05-10T07:12:15;15.80;99.90
52321;DHT22;38261;54.090;13.382;2023-05-10T07:13:37;15.80;99.90
52321;DHT22;38261;54.090;13.382;2023-05-10T07:15:00;15.80;99.90
52321;DHT22;38261;54.090;13.382;2023-05-10T07:16:23;15.80;99.90
52321;DHT22;38261;54.090;13.382;2023-05-10T07:17:45;15.80;99.90
52321;DHT22;38261;54.090;13.382;2023-05-10T07:19:07;15.90;99.90
52321;DHT22;38261;54.090;13.382;2023-05-10T07:20:29;15.90;99.90
52321;DHT22;38261;54.090;13.382;2023-05-10T07:21:51;16.00;99.90
52321;DHT22;38261;54.090;13.382;2023-05-10T07:23:13;16.00;99.90
52321;DHT22;38261;54.090;13.382;2023-05-10T07:24:36;16.00;99.90
52321;DHT22;38261;54.090;13.382;2023-05-10T07:25:58;16.00;99.90
52321;DHT22;38261;54.090;13.382;2023-05-10T07:27:20;16.10;99.90
52321;DHT22;38261;54.090;13.382;2023-05-10T07:28:42;16.10;99.90
52321;DHT22;38261;54.090;13.382;2023-05-10T07:30:04;16.10;99.90
52321;DHT22;38261;54.090;13.382;2023-05-10T07:31:27;16.10;99.90
52321;DHT22;38261;54.090;13.382;2023-05-10T07:32:49;16.10;99.90
52321;DHT22;38261;54.090;13.382;2023-05-10T07:34:11;16.20;99.90
52321;DHT22;38261;54.090;13.382;2023-05-10T07:35:33;16.30;99.90
52321;DHT22;38261;54.090;13.382;2023-05-10T07:36:57;16.40;99.90
52321;DHT22;38261;54.090;13.382;2023-05-10T07:38:19;16.40;99.90
52321;DHT22;38261;54.090;13.382;2023-05-10T07:39:41;16.50;99.90
52321;DHT22;38261;54.090;13.382;2023-05-10T07:41:03;16.50;99.90
52321;DHT22;38261;54.090;13.382;2023-05-10T07:42:25;16.50;99.90
52321;DHT22;38261;54.090;13.382;2023-05-10T07:43:47;16.50;99.90
52321;DHT22;38261;54.090;13.382;2023-05-10T07:45:10;16.60;99.90
52321;DHT22;38261;54.090;13.382;2023-05-10T07:46:32;16.70;99.90
52321;DHT22;38261;54.090;13.382;2023-05-10T07:47:54;16.70;99.90
52321;DHT22;38261;54.090;13.382;2023-05-10T07:49:16;16.80;99.90
52321;DHT22;38261;54.090;13.382;2023-05-10T07:50:38;16.80;99.90
52321;DHT22;38261;54.090;13.382;2023-05-10T07:52:00;16.80;99.90
52321;DHT22;38261;54.090;13.382;2023-05-10T07:53:22;16.80;99.90
52321;DHT22;38261;54.090;13.382;2023-05-10T07:54:44;16.90;99.90
52321;DHT22;38261;54.090;13.382;2023-05-10T07:57:43;16.90;99.90
52321;DHT22;38261;54.090;13.382;2023-05-10T07:59:05;17.00;99.90
52321;DHT22;38261;54.090;13.382;2023-05-10T08:00:30;17.10;99.90
52321;DHT22;38261;54.090;13.382;2023-05-10T08:01:52;17.00;99.90
52321;DHT22;38261;54.090;13.382;2023-05-10T08:03:14;17.10;99.90
52321;DHT22;38261;54.090;13.382;2023-05-10T08:04:37;17.10;99.90
52321;DHT22;38261;54.090;13.382;2023-05-10T08:05:59;17.10;99.90
52321;DHT22;38261;54.090;13.382;2023-05-10T08:07:21;17.20;99.90
52321;DHT22;38261;54.090;13.382;2023-05-10T08:08:43;17.30;99.90
52321;DHT22;38261;54.090;13.382;2023-05-10T08:10:10;17.40;99.90
52321;DHT22;38261;54.090;13.382;2023-05-10T08:11:33;17.40;99.90
52321;DHT22;38261;54.090;13.382;2023-05-10T08:12:56;17.40;99.90
52321;DHT22;38261;54.090;13.382;2023-05-10T08:14:18;17.40;99.90
52321;DHT22;38261;54.090;13.382;2023-05-10T08:15:40;17.50;99.90
52321;DHT22;38261;54.090;13.382;2023-05-10T08:17:03;17.50;99.90
52321;DHT22;38261;54.090;13.382;2023-05-10T08:18:25;17.60;99.90
52321;DHT22;38261;54.090;13.382;2023-05-10T08:19:47;17.50;99.90
52321;DHT22;38261;54.090;13.382;2023-05-10T08:21:10;17.60;99.90
52321;DHT22;38261;54.090;13.382;2023-05-10T08:22:33;17.70;99.90
52321;DHT22;38261;54.090;13.382;2023-05-10T08:23:55;17.70;99.90
52321;DHT22;38261;54.090;13.382;2023-05-10T08:25:17;17.70;99.90
52321;DHT22;38261;54.090;13.382;2023-05-10T08:26:39;17.80;99.90
52321;DHT22;38261;54.090;13.382;2023-05-10T08:28:01;17.80;99.90
52321;DHT22;38261;54.090;13.382;2023-05-10T08:29:24;17.90;99.90
52321;DHT22;38261;54.090;13.382;2023-05-10T08:30:47;17.90;99.90
52321;DHT22;38261;54.090;13.382;2023-05-10T08:32:09;18.00;99.90
52321;DHT22;38261;54.090;13.382;2023-05-10T08:33:32;18.00;99.90
52321;DHT22;38261;54.090;13.382;2023-05-10T08:34:55;18.00;99.90
52321;DHT22;38261;54.090;13.382;2023-05-10T08:36:18;18.10;99.90
52321;DHT22;38261;54.090;13.382;2023-05-10T08:37:44;18.10;99.90
52321;DHT22;38261;54.090;13.382;2023-05-10T08:39:06;18.20;99.90
52321;DHT22;38261;54.090;13.382;2023-05-10T08:40:44;18.30;99.90
52321;DHT22;38261;54.090;13.382;2023-05-10T08:42:06;18.40;99.90
52321;DHT22;38261;54.090;13.382;2023-05-10T08:43:30;18.50;99.90
52321;DHT22;38261;54.090;13.382;2023-05-10T08:44:53;18.50;99.90
52321;DHT22;38261;54.090;13.382;2023-05-10T08:46:20;18.50;99.90
52321;DHT22;38261;54.090;13.382;2023-05-10T08:47:43;18.50;99.90
52321;DHT22;38261;54.090;13.382;2023-05-10T08:49:07;18.60;99.90
52321;DHT22;38261;54.090;13.382;2023-05-10T08:50:35;18.60;99.90
52321;DHT22;38261;54.090;13.382;2023-05-10T08:52:01;18.60;99.90
52321;DHT22;38261;54.090;13.382;2023-05-10T08:53:25;18.70;99.90
52321;DHT22;38261;54.090;13.382;2023-05-10T08:54:49;18.70;99.90
52321;DHT22;38261;54.090;13.382;2023-05-10T08:56:11;18.70;99.90
52321;DHT22;38261;54.090;13.382;2023-05-10T08:57:33;18.70;99.90
52321;DHT22;38261;54.090;13.382;2023-05-10T08:58:57;18.80;99.90